createdAt,value
2023-01-10T00:03:08.931Z,84.55
2023-01-10T00:07:10.918Z,85.20
2023-01-10T00:11:31.775Z,91.18
2023-01-10T00:15:34.403Z,92.15
2023-01-10T00:19:36.389Z,94.53
2023-01-10T00:23:38.481Z,95.22
2023-01-10T00:27:40.662Z,90.65
2023-01-10T00:31:42.730Z,99.78
2023-01-10T00:35:44.647Z,91.80
2023-01-10T00:39:46.622Z,101.13
2023-01-10T00:43:57.643Z,104.93
2023-01-10T00:47:59.331Z,105.85
2023-01-10T00:52:01.373Z,132.88
2023-01-10T00:56:03.422Z,119.75
2023-01-10T01:00:09.186Z,97.90
2023-01-10T01:04:11.235Z,96.85
2023-01-10T01:08:14.937Z,107.32
2023-01-10T01:12:16.967Z,117.97
2023-01-10T01:16:19.592Z,127.75
2023-01-10T01:20:21.754Z,117.32
2023-01-10T01:24:24.939Z,104.22
2023-01-10T01:28:27.482Z,107.75
2023-01-10T01:32:29.423Z,98.60
2023-01-10T01:36:31.521Z,102.45
2023-01-10T01:40:33.606Z,104.15
2023-01-10T01:44:39.652Z,97.85
2023-01-10T01:48:44.054Z,91.63
2023-01-10T01:52:50.721Z,111.95
2023-01-10T01:56:57.626Z,108.13
2023-01-10T02:01:00.165Z,116.53
2023-01-10T02:05:08.582Z,108.78
2023-01-10T02:09:33.193Z,110.88
2023-01-10T02:13:40.118Z,115.65
2023-01-10T02:17:42.434Z,121.03
2023-01-10T02:22:28.943Z,118.30
2023-01-10T02:26:55.915Z,119.95
2023-01-10T02:31:13.083Z,122.28
2023-01-10T02:35:24.030Z,124.65
2023-01-10T02:39:38.275Z,117.28
2023-01-10T02:43:48.658Z,120.55
2023-01-10T02:47:50.816Z,118.50
2023-01-10T02:51:52.682Z,120.40
2023-01-10T02:56:08.778Z,129.90
2023-01-10T03:00:31.310Z,135.82
2023-01-10T03:04:51.987Z,134.02
2023-01-10T03:09:07.387Z,135.57
2023-01-10T03:13:23.115Z,142.88
2023-01-10T03:17:28.038Z,137.23
2023-01-10T03:21:33.395Z,143.25
2023-01-10T03:25:38.039Z,124.43
2023-01-10T03:30:03.016Z,129.82
2023-01-10T03:34:05.656Z,139.05
2023-01-10T03:38:20.864Z,132.25
2023-01-10T03:43:00.391Z,119.20
2023-01-10T03:51:18.828Z,121.13
2023-01-10T03:55:24.711Z,114.78
2023-01-10T03:59:28.330Z,112.72
2023-01-10T04:03:30.347Z,111.25
2023-01-10T04:07:32.403Z,112.25
2023-01-10T04:11:34.432Z,116.47
2023-01-10T04:15:36.721Z,123.50
2023-01-10T04:19:38.837Z,131.27
2023-01-10T04:23:40.961Z,130.90
2023-01-10T04:27:43.026Z,138.07
2023-01-10T04:31:44.982Z,125.13
2023-01-10T04:35:48.567Z,121.10
2023-01-10T04:39:50.615Z,110.13
2023-01-10T04:43:52.574Z,118.68
2023-01-10T04:47:56.302Z,120.28
2023-01-10T04:51:58.494Z,114.75
2023-01-10T04:56:05.631Z,119.80
2023-01-10T05:00:09.216Z,115.38
2023-01-10T05:04:11.284Z,122.53
2023-01-10T05:08:13.160Z,122.55
2023-01-10T05:12:15.482Z,118.70
2023-01-10T05:16:18.182Z,121.75
2023-01-10T05:20:20.207Z,126.03
2023-01-10T05:24:22.455Z,133.40
2023-01-10T05:28:24.708Z,131.02
2023-01-10T05:32:29.756Z,124.00
2023-01-10T05:36:32.215Z,143.65
2023-01-10T05:40:34.217Z,127.72
2023-01-10T05:44:36.107Z,121.30
2023-01-10T05:48:38.253Z,134.57
2023-01-10T05:52:40.373Z,131.93
2023-01-10T05:56:42.945Z,121.35
2023-01-10T06:00:44.885Z,129.13
2023-01-10T06:04:46.887Z,126.70
2023-01-10T06:08:48.491Z,141.93
2023-01-10T06:12:50.665Z,145.45
2023-01-10T06:16:52.731Z,136.60
2023-01-10T06:20:54.718Z,134.98
2023-01-10T06:24:56.711Z,150.35
2023-01-10T06:28:59.589Z,143.40
2023-01-10T06:33:02.773Z,130.18
2023-01-10T06:37:04.967Z,137.73
2023-01-10T06:41:13.192Z,146.35
2023-01-10T06:45:15.367Z,170.00
2023-01-10T06:49:17.377Z,144.18
2023-01-10T06:53:19.327Z,159.50
2023-01-10T06:57:21.333Z,147.43
2023-01-10T07:01:23.433Z,163.05
2023-01-10T07:05:25.616Z,159.32
2023-01-10T07:09:28.529Z,155.98
2023-01-10T07:13:30.534Z,160.18
2023-01-10T07:17:32.595Z,169.60
2023-01-10T07:21:34.862Z,156.05
2023-01-10T07:25:36.972Z,148.23
2023-01-10T07:29:39.122Z,178.30
2023-01-10T07:33:41.092Z,159.88
2023-01-10T07:37:43.209Z,161.75
2023-01-10T07:41:47.575Z,172.30
2023-01-10T07:45:50.882Z,155.65
2023-01-10T07:49:52.843Z,161.38
2023-01-10T07:53:54.885Z,162.13
2023-01-10T07:57:57.098Z,163.43
2023-01-10T08:01:59.386Z,162.48
2023-01-10T08:06:03.703Z,175.13
2023-01-10T08:10:06.810Z,178.45
2023-01-10T08:14:08.939Z,154.02
2023-01-10T08:18:11.085Z,174.88
2023-01-10T08:22:13.122Z,159.80
2023-01-10T08:26:15.054Z,160.52
2023-01-10T08:30:17.224Z,155.63
2023-01-10T08:34:19.564Z,172.45
2023-01-10T08:38:21.490Z,155.13
2023-01-10T08:42:23.583Z,152.18
2023-01-10T08:46:25.594Z,148.73
2023-01-10T08:50:27.951Z,148.93
2023-01-10T08:54:29.905Z,149.40
2023-01-10T08:58:31.879Z,147.40
2023-01-10T09:02:33.918Z,129.77
2023-01-10T09:06:36.722Z,146.55
2023-01-10T09:10:38.723Z,133.02
2023-01-10T09:14:40.696Z,125.28
2023-01-10T09:18:42.710Z,132.88
2023-01-10T09:22:44.705Z,128.88
2023-01-10T09:26:46.667Z,142.52
2023-01-10T09:30:48.643Z,120.03
2023-01-10T09:34:50.574Z,132.57
2023-01-10T09:38:52.623Z,119.82
2023-01-10T09:43:18.791Z,130.35
2023-01-10T09:47:35.835Z,111.07
2023-01-10T09:51:39.420Z,122.47
2023-01-10T09:55:42.491Z,121.13
2023-01-10T09:59:45.719Z,133.10
2023-01-10T10:04:05.750Z,122.13
2023-01-10T10:08:16.837Z,121.65
2023-01-10T10:12:30.476Z,118.00
2023-01-10T10:17:10.995Z,109.80
2023-01-10T10:21:19.858Z,113.30
2023-01-10T10:30:14.439Z,118.05
2023-01-10T10:34:29.418Z,104.57
2023-01-10T10:38:37.323Z,109.78
2023-01-10T10:42:43.056Z,110.03
2023-01-10T10:46:45.333Z,110.38
2023-01-10T10:50:56.883Z,110.00
2023-01-10T10:54:59.002Z,117.82
2023-01-10T10:59:01.200Z,103.35
2023-01-10T11:03:21.654Z,113.78
2023-01-10T11:07:25.559Z,108.53
2023-01-10T11:11:31.949Z,121.00
2023-01-10T11:15:40.821Z,107.28
2023-01-10T11:23:57.385Z,105.45
2023-01-10T11:28:01.298Z,110.95
2023-01-10T11:32:15.364Z,124.20
2023-01-10T11:36:18.377Z,126.15
2023-01-10T11:40:20.663Z,112.47
2023-01-10T11:44:26.330Z,108.10
2023-01-10T11:53:38.019Z,116.13
2023-01-10T11:57:40.143Z,113.43
2023-01-10T12:01:48.187Z,114.82
2023-01-10T12:05:53.082Z,114.22
2023-01-10T12:10:03.545Z,119.25
2023-01-10T12:14:19.797Z,102.40
2023-01-10T12:18:21.903Z,110.88
2023-01-10T12:22:39.161Z,114.18
2023-01-10T12:26:42.584Z,110.85
2023-01-10T12:30:50.257Z,101.68
2023-01-10T12:35:01.708Z,103.63
2023-01-10T12:39:16.245Z,96.85
2023-01-10T12:43:44.037Z,89.03
2023-01-10T12:47:55.048Z,85.45
2023-01-10T12:52:03.919Z,89.70
2023-01-10T12:56:10.895Z,94.90
2023-01-10T13:00:37.644Z,86.40
2023-01-10T13:04:44.951Z,82.10
2023-01-10T13:08:47.183Z,91.30
2023-01-10T13:13:36.735Z,79.53
2023-01-10T13:18:05.314Z,81.95
2023-01-10T13:22:21.013Z,82.53
2023-01-10T13:26:23.211Z,91.07
2023-01-10T13:30:33.120Z,76.40
2023-01-10T13:34:36.356Z,83.70
2023-01-10T13:38:51.338Z,83.50
2023-01-10T13:43:34.368Z,75.63
2023-01-10T13:47:39.450Z,76.35
2023-01-10T13:52:20.267Z,75.90
2023-01-10T13:56:40.809Z,69.78
2023-01-10T14:01:09.001Z,65.05
2023-01-10T14:05:18.441Z,71.95
2023-01-10T14:09:20.434Z,76.13
2023-01-10T14:13:23.030Z,75.30
2023-01-10T14:17:29.135Z,72.95
2023-01-10T14:21:36.078Z,75.03
2023-01-10T14:25:39.094Z,76.60
2023-01-10T14:29:47.681Z,82.40
2023-01-10T14:33:49.840Z,80.65
2023-01-10T14:37:56.423Z,79.55
2023-01-10T14:42:01.511Z,73.97
2023-01-10T14:46:12.432Z,71.35
2023-01-10T14:50:30.155Z,78.70
2023-01-10T14:54:32.073Z,69.75
2023-01-10T14:58:34.129Z,71.95
2023-01-10T15:02:39.178Z,73.13
2023-01-10T15:07:00.125Z,78.03
2023-01-10T15:11:06.596Z,66.97
2023-01-10T15:15:17.067Z,69.13
2023-01-10T15:19:21.971Z,67.28
2023-01-10T15:23:27.312Z,63.92
2023-01-10T15:27:30.983Z,71.22
2023-01-10T15:31:37.596Z,64.43
2023-01-10T15:35:40.232Z,61.85
2023-01-10T15:39:47.085Z,62.22
2023-01-10T15:43:54.329Z,63.60
2023-01-10T15:48:03.816Z,55.45
2023-01-10T15:52:20.986Z,63.38
2023-01-10T15:56:40.780Z,58.85
2023-01-10T16:00:45.796Z,47.95
2023-01-10T16:04:50.137Z,56.10
2023-01-10T16:08:57.887Z,58.92
2023-01-10T16:13:31.726Z,49.80
2023-01-10T16:17:33.715Z,54.63
2023-01-10T16:21:42.130Z,56.40
2023-01-10T16:25:47.151Z,53.80
2023-01-10T16:29:49.152Z,63.85
2023-01-10T16:33:51.730Z,57.40
2023-01-10T16:37:56.202Z,62.50
2023-01-10T16:42:16.696Z,64.40
2023-01-10T16:46:18.748Z,60.50
2023-01-10T16:50:20.832Z,59.47
2023-01-10T16:54:25.407Z,58.30
2023-01-10T16:58:27.308Z,66.05
2023-01-10T17:02:29.326Z,74.30
2023-01-10T17:06:31.364Z,72.32
2023-01-10T17:10:35.534Z,73.45
2023-01-10T17:14:38.735Z,87.80
2023-01-10T17:18:40.725Z,77.38
2023-01-10T17:22:42.912Z,77.70
2023-01-10T17:26:45.066Z,68.82
2023-01-10T17:30:46.999Z,76.07
2023-01-10T17:34:49.005Z,93.57
2023-01-10T17:38:50.942Z,83.35
2023-01-10T17:42:52.881Z,87.53
2023-01-10T17:46:56.918Z,81.70
2023-01-10T17:51:00.569Z,67.97
2023-01-10T17:55:03.522Z,78.82
2023-01-10T17:59:05.528Z,74.07
2023-01-10T18:03:08.641Z,78.25
2023-01-10T18:07:13.006Z,85.20
2023-01-10T18:11:15.119Z,75.88
2023-01-10T18:15:17.141Z,85.40
2023-01-10T18:19:19.078Z,79.68
2023-01-10T18:23:21.353Z,76.78
2023-01-10T18:27:24.958Z,79.80
2023-01-10T18:31:27.094Z,77.60
2023-01-10T18:35:30.222Z,80.22
2023-01-10T18:39:32.066Z,83.88
2023-01-10T18:43:34.164Z,79.15
2023-01-10T18:47:36.208Z,74.35
2023-01-10T18:51:38.190Z,71.82
2023-01-10T18:55:40.187Z,86.07
2023-01-10T18:59:41.884Z,86.70
2023-01-10T19:03:44.583Z,83.38
2023-01-10T19:07:46.993Z,72.15
2023-01-10T19:11:49.272Z,75.15
2023-01-10T19:15:51.408Z,71.93
2023-01-10T19:19:54.471Z,70.60
2023-01-10T19:24:01.753Z,61.00
2023-01-10T19:28:04.550Z,63.55
2023-01-10T19:32:06.603Z,61.85
2023-01-10T19:36:08.784Z,73.53
2023-01-10T19:40:12.280Z,71.53
2023-01-10T19:44:16.552Z,70.78
2023-01-10T19:48:18.511Z,68.03
2023-01-10T19:52:20.266Z,66.38
2023-01-10T19:56:23.204Z,67.25
2023-01-10T20:00:25.256Z,67.68
2023-01-10T20:04:27.237Z,75.90
2023-01-10T20:08:29.284Z,72.32
2023-01-10T20:12:31.158Z,73.05
2023-01-10T20:16:34.045Z,72.32
2023-01-10T20:20:36.011Z,67.25
2023-01-10T20:24:38.143Z,68.38
2023-01-10T20:28:41.508Z,61.80
2023-01-10T20:32:43.252Z,66.03
2023-01-10T20:36:46.708Z,70.03
2023-01-10T20:40:48.755Z,63.28
2023-01-10T20:44:50.480Z,71.47
2023-01-10T20:48:53.839Z,87.38
2023-01-10T20:52:55.777Z,80.40
2023-01-10T20:56:57.815Z,73.97
2023-01-10T21:00:59.739Z,83.10
2023-01-10T21:05:01.707Z,83.50
2023-01-10T21:09:05.053Z,90.30
2023-01-10T21:13:07.026Z,79.25
2023-01-10T21:17:09.107Z,78.07
2023-01-10T21:21:12.957Z,81.22
2023-01-10T21:25:14.963Z,81.55
2023-01-10T21:29:17.173Z,85.70
2023-01-10T21:33:19.131Z,78.38
2023-01-10T21:37:21.143Z,78.43
2023-01-10T21:41:41.969Z,115.25
2023-01-10T21:45:43.972Z,88.50
2023-01-10T21:49:45.911Z,78.32
2023-01-10T21:53:47.913Z,90.47
2023-01-10T21:57:49.893Z,126.57
2023-01-10T22:01:51.828Z,132.05
2023-01-10T22:05:53.972Z,141.38
2023-01-10T22:09:56.055Z,157.75
2023-01-10T22:13:57.997Z,151.32
2023-01-10T22:18:01.247Z,164.55
2023-01-10T22:22:03.457Z,154.80
2023-01-10T22:26:09.592Z,192.00
2023-01-10T22:30:12.007Z,192.35
2023-01-10T22:34:14.113Z,201.20
2023-01-10T22:38:16.118Z,177.57
2023-01-10T22:42:17.867Z,161.27
2023-01-10T22:46:20.609Z,171.40
2023-01-10T22:50:22.770Z,177.50
2023-01-10T22:54:24.699Z,162.02
2023-01-10T22:58:27.381Z,173.82
2023-01-10T23:02:29.306Z,166.23
2023-01-10T23:06:31.625Z,135.02
2023-01-10T23:10:33.862Z,158.77
2023-01-10T23:14:36.598Z,140.82
2023-01-10T23:18:39.077Z,143.68
2023-01-10T23:22:41.068Z,143.43
2023-01-10T23:26:42.978Z,146.52
2023-01-10T23:30:44.956Z,209.60
2023-01-10T23:34:46.659Z,147.30
2023-01-10T23:38:48.659Z,225.75
2023-01-10T23:42:50.595Z,137.10
2023-01-10T23:46:52.338Z,166.63
2023-01-10T23:50:54.237Z,152.43
2023-01-10T23:54:56.413Z,165.82
2023-01-10T23:58:58.416Z,150.45
